Test XHTML 1.0 Strict Page for WU-History Testing
Histórico de la Estación METEOCORUÑA
Diario Datos del Junio 15, 2018 Unidades:  Metrico    Inglés   Ambos
« Prev Dia
Sig Dia »
Diario Semanal Mensual Anual Rango
  Max: Min: Media:
Temp: -17.8 °C -10.4 °C -9.6 °C
Rocío: -17.8 °C -11 °C -10.3 °C
Humedad: Humidity % 80 % 91 %
Vel. viento: 0 km/h 0 km/h 23.7 km/h
Racha: 0 km/h - -
Viento:- - WNW
Presión: 0 hPa 34506.7 hPa -
Lluvia: 58.42 mm    
Historical Graphs
 
 
Busqueda de Junio 15, 2018
Hora Temp Rocío Presión Viento Vel. viento Racha Humedad Ratio lluvia (/hora) Radiación
-17.8 °C -17.8 °C 0 hPa Calm     Humidity % 0 mm SolarRadiationWatts/m^2 W/m2
00:04 -8.9 °C -9.5 °C 34544 hPa Calm   2.6 km/h 94 % 0 mm 0.00 W/m2
00:09 -8.9 °C -9.4 °C 34544 hPa Calm   2.6 km/h 95 % 0 mm 0.00 W/m2
00:14 -8.9 °C -9.4 °C 34544 hPa Calm   2.6 km/h 95 % 0 mm 0.00 W/m2
00:19 -8.9 °C -9.4 °C 34544 hPa Calm   2.6 km/h 95 % 0 mm 0.00 W/m2
00:24 -8.9 °C -9.4 °C 34540.6 hPa Calm   2.6 km/h 95 % 0 mm 0.00 W/m2
00:29 -8.9 °C -9.4 °C 34540.6 hPa Calm   2.6 km/h 95 % 0 mm 0.00 W/m2
00:34 -8.9 °C -9.4 °C 34540.6 hPa Calm   7.7 km/h 95 % 0 mm 0.00 W/m2
00:39 -8.9 °C -9.4 °C 34540.6 hPa Calm   2.6 km/h 95 % 0 mm 0.00 W/m2
00:44 -8.9 °C -9.4 °C 34540.6 hPa Calm   5.1 km/h 95 % 0 mm 0.00 W/m2
00:49 -8.9 °C -9.4 °C 34540.6 hPa Calm   5.1 km/h 95 % 0 mm 0.00 W/m2
00:54 -8.9 °C -9.4 °C 34540.6 hPa Calm   2.6 km/h 95 % 0 mm 0.00 W/m2
00:59 -8.9 °C -9.4 °C 34540.6 hPa Calm   7.7 km/h 95 % 0 mm 0.00 W/m2
01:04 -8.9 °C -9.4 °C 34537.2 hPa Calm   7.7 km/h 95 % 0 mm 0.00 W/m2
01:09 -8.9 °C -9.4 °C 34537.2 hPa West 2.6 km/h 5.1 km/h 95 % 0 mm 0.00 W/m2
01:14 -8.9 °C -9.4 °C 34537.2 hPa West 2.6 km/h 7.7 km/h 95 % 0 mm 0.00 W/m2
01:19 -8.9 °C -9.4 °C 34537.2 hPa West 2.6 km/h 7.7 km/h 95 % 0 mm 0.00 W/m2
01:24 -8.9 °C -9.4 °C 34540.6 hPa West 2.6 km/h 10.3 km/h 95 % 0 mm 0.00 W/m2
01:29 -9 °C -9.4 °C 34540.6 hPa West 5.1 km/h 12.9 km/h 95 % 0 mm 0.00 W/m2
01:34 -9 °C -9.4 °C 34540.6 hPa West 7.7 km/h 10.3 km/h 95 % 0 mm 0.00 W/m2
01:39 -9 °C -9.3 °C 34537.2 hPa West 7.7 km/h 7.7 km/h 96 % 0 mm 0.00 W/m2
01:44 -9 °C -9.3 °C 34537.2 hPa West 5.1 km/h 7.7 km/h 96 % 0 mm 0.00 W/m2
01:49 -9 °C -9.3 °C 34533.8 hPa West 2.6 km/h 7.7 km/h 96 % 0 mm 0.00 W/m2
01:54 -9 °C -9.3 °C 34533.8 hPa West 2.6 km/h 7.7 km/h 96 % 0 mm 0.00 W/m2
01:59 -9 °C -9.3 °C 34520.3 hPa West 9 km/h 2.3 km/h 96 % 0 mm 0.00 W/m2
02:04 -8.9 °C -9.3 °C 34530.4 hPa West 2.6 km/h 7.7 km/h 96 % 0 mm 0.00 W/m2
02:09 -8.9 °C -9.3 °C 34527 hPa Calm   2.6 km/h 96 % 0 mm 0.00 W/m2
02:14 -8.9 °C -9.3 °C 34527 hPa Calm   2.6 km/h 96 % 7.62 mm 0.00 W/m2
02:19 -8.9 °C -9.3 °C 34527 hPa Calm   5.1 km/h 96 % 7.62 mm 0.00 W/m2
02:24 -8.9 °C -9.3 °C 34523.7 hPa West 2.6 km/h 5.1 km/h 96 % 7.62 mm 0.00 W/m2
02:29 -8.9 °C -9.3 °C 34523.7 hPa West 2.6 km/h 7.7 km/h 96 % 7.62 mm 0.00 W/m2
02:34 -8.9 °C -9.3 °C 34523.7 hPa West 2.6 km/h 10.3 km/h 96 % 7.62 mm 0.00 W/m2
02:39 -9 °C -9.3 °C 34513.5 hPa West 10.3 km/h 6 km/h 96 % 7.62 mm 0.00 W/m2
02:44 -9 °C -9.3 °C 34520.3 hPa West 5.1 km/h 7.7 km/h 96 % 7.62 mm 0.00 W/m2
02:49 -8.9 °C -9.3 °C 34520.3 hPa West 5.1 km/h 10.3 km/h 96 % 7.62 mm 0.00 W/m2
02:54 -8.9 °C -9.3 °C 34523.7 hPa West 2.6 km/h 5.1 km/h 96 % 7.62 mm 0.00 W/m2
02:59 -8.9 °C -9.3 °C 34523.7 hPa West 2.6 km/h 7.7 km/h 96 % 7.62 mm 0.00 W/m2
03:04 -9 °C -9.3 °C 34520.3 hPa West 2.6 km/h 10.3 km/h 96 % 7.62 mm 0.00 W/m2
03:09 -9 °C -9.3 °C 34523.7 hPa West 5.1 km/h 10.3 km/h 96 % 7.62 mm 0.00 W/m2
03:14 -9 °C -9.3 °C 34520.3 hPa West 5.1 km/h 10.3 km/h 96 % 0 mm 0.00 W/m2
03:19 -9 °C -9.3 °C 34520.3 hPa West 7.7 km/h 10.3 km/h 96 % 0 mm 0.00 W/m2
03:24 -9 °C -9.3 °C 34516.9 hPa WNW 5.1 km/h 12.9 km/h 96 % 7.62 mm 0.00 W/m2
03:29 -9 °C -9.3 °C 34516.9 hPa NW 5.1 km/h 10.3 km/h 96 % 7.62 mm 0.00 W/m2
03:34 -9 °C -9.3 °C 34516.9 hPa NW 5.1 km/h 7.7 km/h 96 % 7.62 mm 0.00 W/m2
03:39 -9 °C -9.3 °C 34516.9 hPa WNW 2.6 km/h 12.9 km/h 96 % 7.62 mm 0.00 W/m2
03:44 -9.1 °C -9.4 °C 34516.9 hPa NW 5.1 km/h 10.3 km/h 96 % 7.62 mm 0.00 W/m2
03:49 -9.1 °C -9.4 °C 34516.9 hPa NW 7.7 km/h 28.5 km/h 96 % 12.7 mm 0.00 W/m2
03:54 -9.1 °C -9.5 °C 34516.9 hPa NW 10.3 km/h 25.9 km/h 96 % 12.7 mm 0.00 W/m2
03:59 -9.2 °C -9.6 °C 34516.9 hPa NW 12.9 km/h 23.3 km/h 96 % 12.7 mm 0.00 W/m2
04:04 -9.3 °C -9.6 °C 34516.9 hPa NW 15.6 km/h 33.6 km/h 96 % 12.7 mm 0.00 W/m2
04:09 -9.3 °C -9.6 °C 34520.3 hPa NW 15.6 km/h 28.5 km/h 96 % 12.7 mm 0.00 W/m2
04:14 -9.3 °C -9.6 °C 34516.9 hPa NW 12.9 km/h 33.6 km/h 96 % 12.7 mm 0.00 W/m2
04:19 -9.3 °C -9.6 °C 34520.3 hPa NW 12.9 km/h 33.6 km/h 96 % 12.7 mm 0.00 W/m2
04:24 -9.3 °C -9.6 °C 34520.3 hPa NW 12.9 km/h 28.5 km/h 96 % 12.7 mm 0.00 W/m2
04:29 -9.3 °C -9.6 °C 34520.3 hPa NW 12.9 km/h 33.6 km/h 97 % 12.7 mm 0.00 W/m2
04:34 -9.3 °C -9.6 °C 34520.3 hPa NW 15.6 km/h 36.2 km/h 97 % 12.7 mm 0.00 W/m2
04:39 -9.3 °C -9.6 °C 34516.9 hPa NW 15.6 km/h 36.2 km/h 97 % 12.7 mm 0.00 W/m2
04:44 -9.4 °C -9.8 °C 34516.9 hPa NNW 18.2 km/h 23.3 km/h 96 % 12.7 mm 0.00 W/m2
04:49 -9.4 °C -9.8 °C 34516.9 hPa NW 15.6 km/h 36.2 km/h 96 % 12.7 mm 0.00 W/m2
04:54 -9.4 °C -9.8 °C 34513.5 hPa NW 15.6 km/h 33.6 km/h 96 % 12.7 mm 0.00 W/m2
04:59 -9.6 °C -9.8 °C 34516.9 hPa NNW 18.2 km/h 44.1 km/h 97 % 12.7 mm 0.00 W/m2
05:04 -9.6 °C -9.9 °C 34516.9 hPa NNW 20.8 km/h 44.1 km/h 96 % 12.7 mm 0.00 W/m2
05:09 -9.6 °C -9.8 °C 34516.9 hPa NNW 23.3 km/h 46.7 km/h 97 % 12.7 mm 0.00 W/m2
05:14 -9.6 °C -9.8 °C 34516.9 hPa NNW 20.8 km/h 38.8 km/h 97 % 12.7 mm 0.00 W/m2
05:19 -9.6 °C -9.9 °C 34516.9 hPa NNW 20.8 km/h 38.8 km/h 97 % 12.7 mm 0.00 W/m2
05:24 -9.6 °C -9.9 °C 34520.3 hPa NW 23.3 km/h 38.8 km/h 97 % 12.7 mm 0.00 W/m2
05:29 -9.6 °C -9.9 °C 34516.9 hPa NW 23.3 km/h 41.4 km/h 97 % 12.7 mm 0.00 W/m2
05:34 -9.6 °C -9.9 °C 34516.9 hPa NNW 20.8 km/h 33.6 km/h 97 % 12.7 mm 0.00 W/m2
05:39 -9.6 °C -9.9 °C 34516.9 hPa NNW 20.8 km/h 36.2 km/h 97 % 12.7 mm 0.00 W/m2
05:44 -9.6 °C -9.9 °C 34513.5 hPa NW 18.2 km/h 36.2 km/h 97 % 12.7 mm 0.00 W/m2
05:49 -9.6 °C -9.9 °C 34513.5 hPa NNW 15.6 km/h 38.8 km/h 97 % 12.7 mm 0.00 W/m2
05:54 -9.7 °C -9.9 °C 34516.9 hPa NNW 18.2 km/h 49.2 km/h 97 % 12.7 mm 0.00 W/m2
05:59 -9.7 °C -9.9 °C 34513.5 hPa NW 18.2 km/h 41.4 km/h 97 % 12.7 mm 0.00 W/m2
06:04 -9.8 °C -10.1 °C 34506.7 hPa WNW 33.6 km/h 18.2 km/h 97 % 12.7 mm 0.00 W/m2
06:09 -9.8 °C -10.1 °C 34506.7 hPa NNE 44.7 km/h 20.9 km/h 97 % 12.7 mm 0.00 W/m2
06:14 -9.9 °C -10.1 °C 34506.7 hPa NW 29.8 km/h 18.7 km/h 97 % 12.7 mm 0.00 W/m2
06:19 -9.9 °C -10.2 °C 34506.7 hPa NNW 44.7 km/h 22.9 km/h 97 % 12.7 mm 0.00 W/m2
06:21 -9.9 °C -10.2 °C 34506.7 hPa NNW 36.2 km/h 22.9 km/h 97 % 12.7 mm 0.00 W/m2
06:29 -9.9 °C -10.2 °C 34506.7 hPa NNW 50.7 km/h 26.4 km/h 97 % 12.7 mm 0.00 W/m2
06:30 -10.1 °C -10.4 °C 34533.8 hPa NNW 20.8 km/h 51.8 km/h 97 % 12.7 mm 2.00 W/m2
06:34 -9.9 °C -10.2 °C 34510.1 hPa NW 36.2 km/h 20.8 km/h 97 % 12.7 mm 0.00 W/m2
06:39 -10 °C -10.2 °C 34510.1 hPa NNW 44.1 km/h 27.7 km/h 97 % 12.7 mm 0.00 W/m2
06:44 -10.1 °C -10.3 °C 34513.5 hPa NW 46.7 km/h 22.5 km/h 97 % 7.62 mm 0.00 W/m2
06:49 -10.1 °C -10.3 °C 34516.9 hPa NW 44.1 km/h 23.8 km/h 97 % 7.62 mm 0.00 W/m2
06:54 -10.1 °C -10.3 °C 34516.9 hPa WNW 50.7 km/h 24.6 km/h 97 % 7.62 mm 0.00 W/m2
06:59 -10.1 °C -10.3 °C 34516.9 hPa West 32.8 km/h 15.8 km/h 97 % 7.62 mm 0.00 W/m2
07:00 -10.2 °C -10.5 °C 34537.2 hPa NNW 20.8 km/h 54.4 km/h 97 % 7.62 mm 8.00 W/m2
07:04 -10.1 °C -10.3 °C 34516.9 hPa WNW 49.2 km/h 25.4 km/h 97 % 7.62 mm 0.00 W/m2
07:09 -10.1 °C -10.3 °C 34520.3 hPa WSW 41.4 km/h 19.6 km/h 97 % 7.62 mm 0.00 W/m2
07:14 -10.2 °C -10.4 °C 34520.3 hPa WNW 41.7 km/h 21.6 km/h 97 % 7.62 mm 0.00 W/m2
07:19 -10.2 °C -10.4 °C 34520.3 hPa SW 35.7 km/h 21.6 km/h 97 % 7.62 mm 5.00 W/m2
07:24 -10.2 °C -10.4 °C 34523.7 hPa NW 50.7 km/h 20.8 km/h 97 % 7.62 mm 5.00 W/m2
07:29 -10.2 °C -10.4 °C 34527 hPa NW 38.8 km/h 18.3 km/h 97 % 7.62 mm 5.00 W/m2
07:30 -10.3 °C -10.6 °C 34540.6 hPa NW 18.2 km/h 51.8 km/h 97 % 0 mm 16.00 W/m2
07:34 -10.3 °C -10.5 °C 34527 hPa NNW 51.8 km/h 24.3 km/h 97 % 7.62 mm 5.00 W/m2
07:39 -10.3 °C -10.5 °C 34527 hPa WNW 36.2 km/h 24.1 km/h 97 % 7.62 mm 9.00 W/m2
07:44 -10.2 °C -10.5 °C 34523.7 hPa West 44.7 km/h 16.9 km/h 97 % 7.62 mm 7.00 W/m2
07:49 -10.2 °C -10.5 °C 34527 hPa NW 44.1 km/h 17.5 km/h 97 % 7.62 mm 11.00 W/m2
07:54 -10.3 °C -10.5 °C 34527 hPa NW 50.7 km/h 17.9 km/h 97 % 7.62 mm 11.00 W/m2
07:59 -10.3 °C -10.6 °C 34527 hPa NW 38.8 km/h 16.1 km/h 97 % 7.62 mm 14.00 W/m2
08:00 -10.3 °C -10.6 °C 34544 hPa NNW 18.2 km/h 51.8 km/h 97 % 0 mm 23.00 W/m2
08:04 -10.3 °C -10.5 °C 34530.4 hPa NNE 33.6 km/h 21.6 km/h 97 % 7.62 mm 14.00 W/m2
08:09 -10.3 °C -10.5 °C 34530.4 hPa NW 32.8 km/h 16.1 km/h 97 % 7.62 mm 14.00 W/m2
08:14 -10.3 °C -10.5 °C 34530.4 hPa North 35.7 km/h 19.5 km/h 97 % 7.62 mm 16.00 W/m2
08:19 -10.3 °C -10.6 °C 34533.8 hPa NE 41.7 km/h 9.8 km/h 97 % 7.62 mm 18.00 W/m2
08:24 -10.3 °C -10.5 °C 34530.4 hPa NW 33.6 km/h 15.8 km/h 97 % 7.62 mm 21.00 W/m2
08:29 -10.3 °C -10.6 °C 34533.8 hPa NNW 32.8 km/h 11.6 km/h 97 % 0 mm 18.00 W/m2
08:30 -10.4 °C -10.6 °C 34547.4 hPa NW 20.8 km/h 46.7 km/h 97 % 0 mm 39.00 W/m2
08:34 -10.3 °C -10.6 °C 34533.8 hPa WNW 35.7 km/h 11.1 km/h 97 % 0 mm 21.00 W/m2
08:39 -10.3 °C -10.6 °C 34533.8 hPa WNW 32.8 km/h 16.1 km/h 97 % 0 mm 23.00 W/m2
08:44 -10.3 °C -10.5 °C 34537.2 hPa NNW 29.8 km/h 17.5 km/h 97 % 0 mm 23.00 W/m2
08:49 -10.3 °C -10.6 °C 34533.8 hPa NW 41.7 km/h 20 km/h 97 % 0 mm 26.00 W/m2
08:54 -10.4 °C -10.6 °C 34533.8 hPa NNW 32.8 km/h 21.2 km/h 97 % 0 mm 26.00 W/m2
08:59 -10.3 °C -10.6 °C 34537.2 hPa ENE 44.1 km/h 23.3 km/h 97 % 0 mm 30.00 W/m2
09:00 -10.4 °C -10.7 °C 34554.1 hPa NNW 18.2 km/h 41.4 km/h 97 % 0 mm 50.00 W/m2
09:04 -10.3 °C -10.6 °C 34540.6 hPa North 31.1 km/h 18.7 km/h 97 % 0 mm 35.00 W/m2
09:09 -10.3 °C -10.6 °C 34540.6 hPa WNW 38.8 km/h 20 km/h 97 % 0 mm 33.00 W/m2
09:14 -10.4 °C -10.7 °C 34540.6 hPa WNW 41.7 km/h 26.4 km/h 97 % 0 mm 44.00 W/m2
09:19 -10.4 °C -10.7 °C 34540.6 hPa NNW 41.7 km/h 17.1 km/h 97 % 0 mm 46.00 W/m2
09:24 -10.4 °C -10.7 °C 34540.6 hPa NNW 41.7 km/h 24.6 km/h 97 % 0 mm 54.00 W/m2
09:29 -10.4 °C -10.7 °C 34540.6 hPa WNW 29.8 km/h 13.5 km/h 97 % 0 mm 58.00 W/m2
09:30 -10.3 °C -10.6 °C 34560.9 hPa NNW 23.3 km/h 51.8 km/h 97 % 0 mm 64.00 W/m2
09:34 -10.4 °C -10.7 °C 34540.6 hPa NNW 23.8 km/h 12.9 km/h 97 % 0 mm 56.00 W/m2
09:39 -10.4 °C -10.7 °C 34544 hPa North 35.7 km/h 22.5 km/h 97 % 0 mm 49.00 W/m2
09:44 -10.4 °C -10.7 °C 34544 hPa North 32.8 km/h 16.9 km/h 97 % 0 mm 44.00 W/m2
09:49 -10.4 °C -10.7 °C 34540.6 hPa NNW 41.4 km/h 23 km/h 97 % 0 mm 42.00 W/m2
09:54 -10.4 °C -10.6 °C 34540.6 hPa NNW 29.8 km/h 19.2 km/h 97 % 0 mm 58.00 W/m2
09:59 -10.4 °C -10.6 °C 34544 hPa North 38.8 km/h 25.1 km/h 97 % 0 mm 49.00 W/m2
10:00 -10.2 °C -10.5 °C 34567.7 hPa NNW 20.8 km/h 46.7 km/h 97 % 0 mm 101.00 W/m2
10:04 -10.3 °C -10.6 °C 34540.6 hPa NW 35.7 km/h 12.9 km/h 97 % 0 mm 62.00 W/m2
10:09 -10.3 °C -10.6 °C 34544 hPa WSW 50.7 km/h 21.6 km/h 97 % 0 mm 67.00 W/m2
10:14 -10.4 °C -10.6 °C 34547.4 hPa NW 41.7 km/h 21.7 km/h 97 % 0 mm 77.00 W/m2
10:19 -10.4 °C -10.6 °C 34550.7 hPa NW 47.6 km/h 27.2 km/h 97 % 0 mm 70.00 W/m2
10:24 -10.3 °C -10.6 °C 34550.7 hPa WNW 47.6 km/h 23 km/h 97 % 0 mm 74.00 W/m2
10:29 -10.3 °C -10.5 °C 34550.7 hPa NNW 41.4 km/h 27.2 km/h 97 % 0 mm 95.00 W/m2
10:30 -10.2 °C -10.4 °C 34567.7 hPa NNW 15.6 km/h 46.7 km/h 97 % 0 mm 137.00 W/m2
10:34 -10.3 °C -10.5 °C 34547.4 hPa NW 35.7 km/h 22.2 km/h 97 % 0 mm 107.00 W/m2
10:39 -10.2 °C -10.5 °C 34550.7 hPa North 33.6 km/h 20.4 km/h 97 % 0 mm 102.00 W/m2
10:44 -10.2 °C -10.4 °C 34554.1 hPa NNE 29.8 km/h 16.9 km/h 97 % 0 mm 100.00 W/m2
10:49 -10.2 °C -10.4 °C 34557.5 hPa West 41.4 km/h 22 km/h 97 % 0 mm 95.00 W/m2
10:54 -10.2 °C -10.4 °C 34557.5 hPa NNW 35.7 km/h 17.1 km/h 97 % 0 mm 100.00 W/m2
10:59 -10.2 °C -10.4 °C 34557.5 hPa NNW 33.6 km/h 24.3 km/h 97 % 0 mm 111.00 W/m2
11:00 -10 °C -10.2 °C 34567.7 hPa NNW 12.9 km/h 33.6 km/h 97 % 0 mm 234.00 W/m2
11:04 -10.2 °C -10.4 °C 34557.5 hPa WNW 29.8 km/h 16.6 km/h 97 % 0 mm 114.00 W/m2
11:09 -10.2 °C -10.5 °C 34557.5 hPa NNW 23.8 km/h 10.9 km/h 97 % 0 mm 121.00 W/m2
11:14 -10.2 °C -10.4 °C 34557.5 hPa ESE 25.9 km/h 9 km/h 97 % 0 mm 137.00 W/m2
11:19 -10.1 °C -10.4 °C 34560.9 hPa NE 20.9 km/h 6.9 km/h 97 % 0 mm 167.00 W/m2
11:24 -10.1 °C -10.4 °C 34560.9 hPa North 29.8 km/h 14.8 km/h 97 % 0 mm 188.00 W/m2
11:29 -10.1 °C -10.3 °C 34557.5 hPa WNW 23.8 km/h 14.8 km/h 97 % 0 mm 204.00 W/m2
11:30 -9.8 °C -10.1 °C 34574.4 hPa NNW 18.2 km/h 38.8 km/h 97 % 0 mm 224.00 W/m2
11:34 -10.1 °C -10.3 °C 34560.9 hPa NNW 23.3 km/h 6.3 km/h 97 % 0 mm 209.00 W/m2
11:39 -10.1 °C -10.3 °C 34557.5 hPa NNW 33.6 km/h 11.6 km/h 97 % 0 mm 218.00 W/m2
11:44 -10 °C -10.2 °C 34557.5 hPa NNW 29.8 km/h 20 km/h 97 % 0 mm 250.00 W/m2
11:49 -9.9 °C -10.2 °C 34557.5 hPa North 26.9 km/h 8 km/h 97 % 0 mm 271.00 W/m2
11:54 -9.9 °C -10.1 °C 34557.5 hPa ENE 23.3 km/h 14.5 km/h 97 % 0 mm 265.00 W/m2
11:59 -9.8 °C -10.1 °C 34560.9 hPa NNW 35.7 km/h 14.5 km/h 97 % 0 mm 258.00 W/m2
12:00 -9.7 °C -10.1 °C 34581.2 hPa NNW 18.2 km/h 38.8 km/h 95 % 0 mm 254.00 W/m2
12:04 -9.8 °C -10.1 °C 34560.9 hPa NNW 31.1 km/h 17.5 km/h 97 % 0 mm 229.00 W/m2
12:09 -9.8 °C -10.1 °C 34567.7 hPa NNW 33.6 km/h 17.1 km/h 97 % 0 mm 202.00 W/m2
12:14 -9.8 °C -10.1 °C 34567.7 hPa West 29.8 km/h 15.8 km/h 97 % 0 mm 195.00 W/m2
12:19 -9.8 °C -10.1 °C 34564.3 hPa NNW 26.9 km/h 18.7 km/h 97 % 0 mm 216.00 W/m2
12:24 -9.8 °C -10.1 °C 34567.7 hPa NNW 32.8 km/h 17.9 km/h 97 % 0 mm 236.00 W/m2
12:29 -9.8 °C -10.1 °C 34567.7 hPa NW 35.7 km/h 20.4 km/h 96 % 0 mm 232.00 W/m2
12:30 -9.6 °C -10.2 °C 34584.6 hPa NNW 15.6 km/h 44.1 km/h 93 % 0 mm 344.00 W/m2
12:34 -9.7 °C -10.1 °C 34567.7 hPa NNW 29.8 km/h 17.4 km/h 96 % 0 mm 241.00 W/m2
12:39 -9.7 °C -10.1 °C 34571.1 hPa NW 33.6 km/h 18.2 km/h 96 % 0 mm 248.00 W/m2
12:44 -9.7 °C -10.1 °C 34567.7 hPa NNW 33.6 km/h 17.5 km/h 95 % 0 mm 278.00 W/m2
12:49 -9.7 °C -10.1 °C 34567.7 hPa NNW 33.6 km/h 16.9 km/h 95 % 0 mm 276.00 W/m2
12:54 -9.7 °C -10.1 °C 34567.7 hPa NNW 29.8 km/h 14.5 km/h 95 % 0 mm 262.00 W/m2
12:59 -9.7 °C -10.1 °C 34567.7 hPa NW 31.1 km/h 19.6 km/h 95 % 0 mm 278.00 W/m2
13:00 -9.5 °C -10.3 °C 34574.4 hPa NNW 20.8 km/h 41.4 km/h 91 % 0 mm 385.00 W/m2
13:04 -9.6 °C -10.2 °C 34571.1 hPa NW 33.6 km/h 16.9 km/h 94 % 0 mm 327.00 W/m2
13:09 -9.6 °C -10.2 °C 34567.7 hPa West 35.7 km/h 16.3 km/h 94 % 0 mm 373.00 W/m2
13:14 -9.6 °C -10.1 °C 34571.1 hPa North 29.8 km/h 16.9 km/h 94 % 0 mm 362.00 W/m2
13:19 -9.6 °C -10.1 °C 34571.1 hPa WNW 29.8 km/h 9.3 km/h 94 % 0 mm 380.00 W/m2
13:24 -9.6 °C -10.2 °C 34571.1 hPa West 31.1 km/h 15.6 km/h 93 % 0 mm 367.00 W/m2
13:29 -9.6 °C -10.2 °C 34567.7 hPa North 41.4 km/h 22.2 km/h 93 % 0 mm 392.00 W/m2
13:30 -9.5 °C -10.4 °C 34581.2 hPa NNW 20.8 km/h 44.1 km/h 89 % 0 mm 329.00 W/m2
13:34 -9.6 °C -10.2 °C 34564.3 hPa WNW 38.8 km/h 24.3 km/h 92 % 0 mm 425.00 W/m2
13:39 -9.5 °C -10.2 °C 34564.3 hPa NNW 38.8 km/h 20.4 km/h 92 % 0 mm 392.00 W/m2
13:44 -9.5 °C -10.2 °C 34564.3 hPa NNW 28.5 km/h 19.2 km/h 92 % 0 mm 373.00 W/m2
13:49 -9.5 °C -10.3 °C 34564.3 hPa North 32.8 km/h 15.8 km/h 91 % 0 mm 364.00 W/m2
13:54 -9.5 °C -10.3 °C 34560.9 hPa NW 33.6 km/h 20.3 km/h 91 % 0 mm 357.00 W/m2
13:59 -9.5 °C -10.3 °C 34564.3 hPa NNW 36.2 km/h 22 km/h 91 % 0 mm 348.00 W/m2
14:00 -9.3 °C -10.4 °C 34581.2 hPa NNW 12.9 km/h 44.1 km/h 88 % 0 mm 333.00 W/m2
14:04 -9.5 °C -10.4 °C 34564.3 hPa NNW 38.8 km/h 23.8 km/h 90 % 0 mm 353.00 W/m2
14:09 -9.5 °C -10.4 °C 34567.7 hPa NNW 33.6 km/h 24.8 km/h 90 % 0 mm 332.00 W/m2
14:14 -9.5 °C -10.4 °C 34564.3 hPa NW 44.7 km/h 16.9 km/h 90 % 0 mm 315.00 W/m2
14:19 -9.4 °C -10.3 °C 34564.3 hPa NW 31.1 km/h 15 km/h 90 % 0 mm 306.00 W/m2
14:24 -9.4 °C -10.4 °C 34567.7 hPa NW 29.8 km/h 16.3 km/h 89 % 0 mm 294.00 W/m2
14:29 -9.3 °C -10.3 °C 34571.1 hPa NNW 20.9 km/h 9 km/h 89 % 0 mm 334.00 W/m2
14:30 -9.2 °C -10.4 °C 34577.8 hPa NNW 15.6 km/h 41.4 km/h 87 % 0 mm 293.00 W/m2
14:34 -9.3 °C -10.4 °C 34574.4 hPa North 32.8 km/h 17.1 km/h 88 % 0 mm 329.00 W/m2
14:39 -9.3 °C -10.4 °C 34571.1 hPa NNE 29.8 km/h 8 km/h 88 % 0 mm 369.00 W/m2
14:44 -9.3 °C -10.4 °C 34571.1 hPa NNW 36.2 km/h 14 km/h 88 % 0 mm 329.00 W/m2
14:49 -9.3 °C -10.4 °C 34571.1 hPa WNW 20.8 km/h 14 km/h 88 % 0 mm 330.00 W/m2
14:54 -9.2 °C -10.3 °C 34571.1 hPa NW 29.8 km/h 8 km/h 88 % 0 mm 318.00 W/m2
14:59 -9.2 °C -10.4 °C 34567.7 hPa NNW 25.9 km/h 16.3 km/h 87 % 0 mm 302.00 W/m2
15:00 -9.3 °C -10.7 °C 34574.4 hPa NNW 15.6 km/h 41.4 km/h 85 % 7.62 mm 306.00 W/m2
15:04 -9.2 °C -10.4 °C 34567.7 hPa North 31.1 km/h 16.3 km/h 87 % 0 mm 327.00 W/m2
15:09 -9.3 °C -10.4 °C 34564.3 hPa NNW 32.8 km/h 11.4 km/h 87 % 0 mm 316.00 W/m2
15:14 -9.3 °C -10.4 °C 34567.7 hPa NNW 28.5 km/h 15.6 km/h 87 % 0 mm 287.00 W/m2
15:19 -9.3 °C -10.5 °C 34567.7 hPa NW 29.8 km/h 20.4 km/h 87 % 0 mm 264.00 W/m2
15:24 -9.3 °C -10.5 °C 34564.3 hPa NNE 31.1 km/h 18.2 km/h 87 % 0 mm 253.00 W/m2
15:29 -9.3 °C -10.5 °C 34567.7 hPa NW 29.8 km/h 21.6 km/h 87 % 0 mm 276.00 W/m2
15:30 -9.2 °C -10.7 °C 34581.2 hPa NW 15.6 km/h 54.4 km/h 84 % 7.62 mm 272.00 W/m2
15:34 -9.3 °C -10.5 °C 34567.7 hPa NNW 28.5 km/h 12.9 km/h 87 % 0 mm 285.00 W/m2
15:39 -9.2 °C -10.5 °C 34564.3 hPa WNW 23.8 km/h 11.1 km/h 86 % 0 mm 313.00 W/m2
15:44 -9.2 °C -10.5 °C 34564.3 hPa NNW 31.1 km/h 17.1 km/h 86 % 0 mm 308.00 W/m2
15:49 -9.3 °C -10.7 °C 34564.3 hPa ESE 36.2 km/h 17.5 km/h 85 % 7.62 mm 334.00 W/m2
15:54 -9.2 °C -10.6 °C 34564.3 hPa NNW 28.5 km/h 16.6 km/h 85 % 7.62 mm 338.00 W/m2
15:59 -9.2 °C -10.7 °C 34567.7 hPa NNW 32.8 km/h 16.1 km/h 84 % 7.62 mm 306.00 W/m2
16:00 -9.2 °C -10.8 °C 34577.8 hPa NNW 15.6 km/h 38.8 km/h 83 % 0 mm 230.00 W/m2
16:04 -9.1 °C -10.5 °C 34567.7 hPa WNW 33.6 km/h 15 km/h 85 % 7.62 mm 292.00 W/m2
16:09 -9.1 °C -10.6 °C 34567.7 hPa NNE 38.8 km/h 24.8 km/h 84 % 7.62 mm 281.00 W/m2
16:14 -9.2 °C -10.7 °C 34567.7 hPa NW 53.6 km/h 11.9 km/h 84 % 7.62 mm 253.00 W/m2
16:19 -9.2 °C -10.7 °C 34567.7 hPa WNW 33.6 km/h 15.3 km/h 84 % 7.62 mm 243.00 W/m2
16:24 -9.2 °C -10.7 °C 34567.7 hPa WNW 31.1 km/h 11.9 km/h 84 % 7.62 mm 239.00 W/m2
16:29 -9.2 °C -10.8 °C 34567.7 hPa NW 29.8 km/h 6 km/h 83 % 7.62 mm 234.00 W/m2
16:30 -9.2 °C -10.9 °C 34567.7 hPa NNW 15.6 km/h 41.4 km/h 82 % 0 mm 221.00 W/m2
16:34 -9.2 °C -10.8 °C 34567.7 hPa NNW 35.7 km/h 20 km/h 83 % 7.62 mm 234.00 W/m2
16:39 -9.2 °C -10.8 °C 34567.7 hPa NNW 26.9 km/h 8.9 km/h 83 % 7.62 mm 241.00 W/m2
16:44 -9.2 °C -10.8 °C 34567.7 hPa SSW 36.2 km/h 19.5 km/h 83 % 7.62 mm 223.00 W/m2
16:49 -9.2 °C -10.8 °C 34567.7 hPa NNW 33.6 km/h 18.8 km/h 83 % 0 mm 221.00 W/m2
16:54 -9.2 °C -10.8 °C 34567.7 hPa NNW 38.8 km/h 14.5 km/h 83 % 0 mm 221.00 W/m2
16:59 -9.2 °C -10.8 °C 34564.3 hPa NNW 23.8 km/h 9.8 km/h 83 % 0 mm 237.00 W/m2
17:00 -9.1 °C -10.9 °C 34560.9 hPa NNW 15.6 km/h 41.4 km/h 81 % 0 mm 356.00 W/m2
17:04 -9.2 °C -10.8 °C 34560.9 hPa NNW 31.1 km/h 22.2 km/h 83 % 0 mm 230.00 W/m2
17:09 -9.2 °C -10.9 °C 34560.9 hPa NW 23.3 km/h 10.1 km/h 82 % 0 mm 220.00 W/m2
17:14 -9.2 °C -10.9 °C 34560.9 hPa West 29.8 km/h 18.8 km/h 82 % 0 mm 204.00 W/m2
17:19 -9.1 °C -10.8 °C 34557.5 hPa NW 28.5 km/h 12.7 km/h 82 % 0 mm 211.00 W/m2
17:24 -9.1 °C -10.8 °C 34557.5 hPa NNW 33.6 km/h 15 km/h 82 % 0 mm 230.00 W/m2
17:29 -9.2 °C -10.9 °C 34557.5 hPa NW 29.8 km/h 7.2 km/h 82 % 0 mm 258.00 W/m2
17:30 -8.9 °C -10.8 °C 34557.5 hPa NNW 18.2 km/h 38.8 km/h 81 % 0 mm 318.00 W/m2
17:34 -9.2 °C -10.9 °C 34557.5 hPa WNW 32.8 km/h 20.8 km/h 82 % 0 mm 341.00 W/m2
17:39 -9.1 °C -10.7 °C 34554.1 hPa NW 28.5 km/h 16.6 km/h 83 % 0 mm 385.00 W/m2
17:44 -9.1 °C -10.7 °C 34550.7 hPa NNW 29.8 km/h 17.9 km/h 83 % 0 mm 432.00 W/m2
17:49 -9 °C -10.7 °C 34550.7 hPa NNW 26.9 km/h 14.5 km/h 82 % 0 mm 390.00 W/m2
17:54 -8.9 °C -10.7 °C 34550.7 hPa North 38.8 km/h 22 km/h 82 % 0 mm 343.00 W/m2
17:59 -9 °C -10.8 °C 34547.4 hPa West 25.9 km/h 15.6 km/h 81 % 0 mm 388.00 W/m2
18:04 -8.9 °C -10.7 °C 34547.4 hPa NNW 25.9 km/h 15.3 km/h 81 % 0 mm 475.00 W/m2
18:09 -8.9 °C -10.7 °C 34547.4 hPa NNW 29.8 km/h 16.6 km/h 81 % 0 mm 290.00 W/m2
18:14 -8.9 °C -10.8 °C 34544 hPa NW 33.6 km/h 22.9 km/h 80 % 0 mm 269.00 W/m2
18:19 -9 °C -10.9 °C 34547.4 hPa NW 38.8 km/h 21.2 km/h 80 % 0 mm 236.00 W/m2
18:24 -9 °C -10.9 °C 34544 hPa West 28.5 km/h 17.9 km/h 80 % 0 mm 211.00 W/m2
18:29 -9 °C -10.8 °C 34547.4 hPa NW 29.8 km/h 8.9 km/h 81 % 0 mm 207.00 W/m2
18:34 -9 °C -10.8 °C 34547.4 hPa NNE 29.8 km/h 17.4 km/h 81 % 0 mm 206.00 W/m2
18:39 -9.1 °C -10.9 °C 34547.4 hPa NW 29.8 km/h 14 km/h 81 % 0 mm 165.00 W/m2
18:44 -9.1 °C -10.7 °C 34547.4 hPa West 29.8 km/h 16.1 km/h 82 % 0 mm 148.00 W/m2
18:49 -9.1 °C -10.7 °C 34544 hPa NNW 29.8 km/h 9.8 km/h 83 % 0 mm 137.00 W/m2
18:54 -9.1 °C -10.7 °C 34544 hPa North 35.7 km/h 11.4 km/h 83 % 0 mm 128.00 W/m2
18:59 -9.1 °C -10.7 °C 34544 hPa NE 23.8 km/h 15.8 km/h 83 % 0 mm 125.00 W/m2
19:04 -9.2 °C -10.9 °C 34550.7 hPa NW 15.6 km/h 36.2 km/h 82 % 0 mm 123.00 W/m2
19:09 -9.2 °C -10.9 °C 34550.7 hPa NW 18.2 km/h 25.9 km/h 82 % 0 mm 125.00 W/m2
19:14 -9.2 °C -10.9 °C 34550.7 hPa NW 15.6 km/h 28.5 km/h 82 % 0 mm 118.00 W/m2
19:19 -9.2 °C -10.8 °C 34537.2 hPa SE 29.8 km/h 9.8 km/h 83 % 0 mm 118.00 W/m2
19:24 -9.1 °C -10.7 °C 34550.7 hPa NNW 15.6 km/h 33.6 km/h 83 % 0 mm 116.00 W/m2
19:29 -9.2 °C -10.8 °C 34550.7 hPa NNW 15.6 km/h 36.2 km/h 83 % 0 mm 149.00 W/m2
19:34 -9.2 °C -10.7 °C 34550.7 hPa NNW 18.2 km/h 31.1 km/h 84 % 0 mm 128.00 W/m2
19:39 -9.2 °C -10.8 °C 34554.1 hPa NW 18.2 km/h 38.8 km/h 83 % 0 mm 114.00 W/m2
19:44 -9.2 °C -10.8 °C 34540.6 hPa NNW 38.8 km/h 20.3 km/h 83 % 0 mm 109.00 W/m2
19:49 -9.2 °C -10.8 °C 34550.7 hPa NNW 18.2 km/h 33.6 km/h 83 % 0 mm 123.00 W/m2
19:54 -9.2 °C -10.8 °C 34547.4 hPa NW 20.8 km/h 38.8 km/h 83 % 0 mm 146.00 W/m2
19:59 -9.2 °C -10.8 °C 34537.2 hPa NNW 35.7 km/h 20.4 km/h 83 % 0 mm 176.00 W/m2
20:04 -9.2 °C -10.9 °C 34537.2 hPa NNW 38.8 km/h 27.5 km/h 82 % 0 mm 202.00 W/m2
20:09 -9.1 °C -10.8 °C 34547.4 hPa NW 23.3 km/h 41.4 km/h 82 % 0 mm 193.00 W/m2
20:14 -9.1 °C -10.8 °C 34547.4 hPa NW 20.8 km/h 31.1 km/h 82 % 0 mm 255.00 W/m2
20:19 -9 °C -10.7 °C 34533.8 hPa NNW 36.2 km/h 19.6 km/h 82 % 0 mm 181.00 W/m2
20:24 -9.1 °C -10.8 °C 34533.8 hPa NNW 29.8 km/h 19.5 km/h 82 % 0 mm 116.00 W/m2
20:29 -9.1 °C -10.8 °C 34544 hPa NNW 20.8 km/h 33.6 km/h 82 % 0 mm 98.00 W/m2
20:34 -9.2 °C -10.9 °C 34540.6 hPa NNW 18.2 km/h 36.2 km/h 82 % 0 mm 95.00 W/m2
20:39 -9.2 °C -10.9 °C 34527 hPa North 31.1 km/h 22.5 km/h 82 % 0 mm 197.00 W/m2
20:44 -9.1 °C -10.8 °C 34527 hPa NW 32.8 km/h 19.2 km/h 82 % 0 mm 181.00 W/m2
20:49 -9.1 °C -10.8 °C 34527 hPa NW 38.8 km/h 20 km/h 82 % 0 mm 162.00 W/m2
20:54 -9.1 °C -10.8 °C 34540.6 hPa NNW 18.2 km/h 33.6 km/h 82 % 0 mm 146.00 W/m2
20:59 -9.1 °C -10.8 °C 34544 hPa NNW 15.6 km/h 25.9 km/h 82 % 0 mm 128.00 W/m2
21:04 -9.1 °C -10.8 °C 34540.6 hPa NW 12.9 km/h 28.5 km/h 82 % 0 mm 114.00 W/m2
21:09 -9.1 °C -10.8 °C 34540.6 hPa NW 12.9 km/h 23.3 km/h 82 % 0 mm 102.00 W/m2
21:14 -9.1 °C -10.8 °C 34540.6 hPa NW 12.9 km/h 23.3 km/h 82 % 0 mm 90.00 W/m2
21:19 -9.1 °C -10.8 °C 34530.4 hPa NNE 15.6 km/h 8.5 km/h 82 % 0 mm 74.00 W/m2
21:24 -9.1 °C -10.7 °C 34540.6 hPa WNW 10.3 km/h 18.2 km/h 83 % 0 mm 63.00 W/m2
21:29 -9.1 °C -10.7 °C 34530.4 hPa SW 17.9 km/h 7.6 km/h 83 % 0 mm 53.00 W/m2
21:34 -9.2 °C -10.8 °C 34530.4 hPa NNW 26.9 km/h 11.1 km/h 83 % 0 mm 42.00 W/m2
21:39 -9.3 °C -10.8 °C 34540.6 hPa NW 10.3 km/h 25.9 km/h 84 % 0 mm 33.00 W/m2
21:44 -9.3 °C -10.8 °C 34527 hPa NW 20.9 km/h 13.5 km/h 84 % 0 mm 28.00 W/m2
21:49 -9.3 °C -10.8 °C 34537.2 hPa NW 12.9 km/h 38.8 km/h 84 % 0 mm 23.00 W/m2
21:54 -9.4 °C -10.9 °C 34537.2 hPa NW 15.6 km/h 31.1 km/h 84 % 0 mm 16.00 W/m2
21:59 -9.4 °C -10.9 °C 34540.6 hPa NNW 15.6 km/h 33.6 km/h 84 % 0 mm 11.00 W/m2
22:04 -9.4 °C -10.9 °C 34523.7 hPa NW 28.5 km/h 16.1 km/h 84 % 0 mm 7.00 W/m2
22:09 -9.5 °C -11 °C 34540.6 hPa NW 15.6 km/h 31.1 km/h 84 % 0 mm 0.00 W/m2
22:14 -9.5 °C -10.9 °C 34537.2 hPa NW 15.6 km/h 33.6 km/h 85 % 0 mm 0.00 W/m2
22:19 -9.5 °C -10.9 °C 34523.7 hPa WNW 23.8 km/h 14.2 km/h 85 % 0 mm 0.00 W/m2
22:24 -9.5 °C -10.9 °C 34540.6 hPa NNW 15.6 km/h 20.8 km/h 85 % 0 mm 0.00 W/m2
22:29 -9.6 °C -10.8 °C 34540.6 hPa NNW 10.3 km/h 25.9 km/h 86 % 0 mm 0.00 W/m2
22:34 -9.6 °C -10.8 °C 34540.6 hPa NNW 12.9 km/h 25.9 km/h 86 % 0 mm 0.00 W/m2
22:39 -9.6 °C -10.8 °C 34540.6 hPa NNW 15.6 km/h 25.9 km/h 86 % 0 mm 0.00 W/m2
22:44 -9.6 °C -10.8 °C 34540.6 hPa NNW 12.9 km/h 20.8 km/h 86 % 0 mm 0.00 W/m2
22:49 -9.6 °C -10.8 °C 34530.4 hPa NNW 17.9 km/h 4.2 km/h 87 % 0 mm 0.00 W/m2
22:54 -9.6 °C -10.8 °C 34530.4 hPa NNW 15.6 km/h 8 km/h 87 % 0 mm 0.00 W/m2
22:59 -9.6 °C -10.8 °C 34544 hPa NNW 10.3 km/h 15.6 km/h 87 % 0 mm 0.00 W/m2
23:04 -9.6 °C -10.8 °C 34547.4 hPa NNW 7.7 km/h 12.9 km/h 87 % 0 mm 0.00 W/m2
23:09 -9.6 °C -10.8 °C 34544 hPa NNE 5.1 km/h 18.2 km/h 87 % 0 mm 0.00 W/m2
23:14 -9.7 °C -10.8 °C 34544 hPa NNE 2.6 km/h 10.3 km/h 88 % 0 mm 0.00 W/m2
23:19 -9.7 °C -10.8 °C 34544 hPa North 5.1 km/h 15.6 km/h 88 % 0 mm 0.00 W/m2
23:24 -9.7 °C -10.8 °C 34530.4 hPa North 15.6 km/h 7.7 km/h 88 % 0 mm 0.00 W/m2
23:29 -9.7 °C -10.8 °C 34544 hPa NNE 5.1 km/h 12.9 km/h 88 % 0 mm 0.00 W/m2
23:34 -9.7 °C -10.8 °C 34530.4 hPa NNE 17.9 km/h 7.6 km/h 88 % 0 mm 0.00 W/m2
23:39 -9.7 °C -10.8 °C 34547.4 hPa North 5.1 km/h 10.3 km/h 88 % 0 mm 0.00 W/m2
23:44 -9.7 °C -10.8 °C 34544 hPa NNE 5.1 km/h 7.7 km/h 88 % 0 mm 0.00 W/m2
23:49 -9.7 °C -10.8 °C 34527 hPa North 9 km/h 4.7 km/h 88 % 0 mm 0.00 W/m2
23:54 -9.7 °C -10.8 °C 34540.6 hPa North 5.1 km/h 15.6 km/h 88 % 0 mm 0.00 W/m2
23:59 -9.7 °C -10.9 °C 34540.6 hPa North 5.1 km/h 10.3 km/h 87 % 0 mm 0.00 W/m2
Meteocoruña
Agradecimientos a Weather Underground - 3.25 mb